createdAt,value
2023-04-15T00:00:03.414Z,46.61
2023-04-15T00:01:03.418Z,46.66
2023-04-15T00:02:03.552Z,46.61
2023-04-15T00:03:03.655Z,46.59
2023-04-15T00:04:03.663Z,46.66
2023-04-15T00:05:03.627Z,46.59
2023-04-15T00:06:03.698Z,46.57
2023-04-15T00:07:03.693Z,46.53
2023-04-15T00:08:03.733Z,46.61
2023-04-15T00:09:03.930Z,46.57
2023-04-15T00:10:03.834Z,46.55
2023-04-15T00:11:03.889Z,46.56
2023-04-15T00:12:03.908Z,46.59
2023-04-15T00:13:03.960Z,46.54
2023-04-15T00:14:04.029Z,46.49
2023-04-15T00:15:04.063Z,46.57
2023-04-15T00:16:04.056Z,46.56
2023-04-15T00:17:04.063Z,46.47
2023-04-15T00:18:03.996Z,46.55
2023-04-15T00:19:03.988Z,46.50
2023-04-15T00:20:03.985Z,46.55
2023-04-15T00:21:03.942Z,46.51
2023-04-15T00:22:03.923Z,46.48
2023-04-15T00:23:04.016Z,46.51
2023-04-15T00:24:03.891Z,46.56
2023-04-15T00:25:03.905Z,46.49
2023-04-15T00:26:03.949Z,46.48
2023-04-15T00:27:03.969Z,46.54
2023-04-15T00:28:04.120Z,46.51
2023-04-15T00:29:04.067Z,46.50
2023-04-15T00:30:04.110Z,46.44
2023-04-15T00:31:04.190Z,46.42
2023-04-15T00:32:04.177Z,46.51
2023-04-15T00:33:04.228Z,46.43
2023-04-15T00:34:04.250Z,46.46
2023-04-15T00:35:04.287Z,46.48
2023-04-15T00:36:04.339Z,46.54
2023-04-15T00:37:04.393Z,46.48
2023-04-15T00:38:04.430Z,46.49
2023-04-15T00:39:04.467Z,46.48
2023-04-15T00:40:04.540Z,46.37
2023-04-15T00:41:04.553Z,46.46
2023-04-15T00:42:04.591Z,46.41
2023-04-15T00:43:04.627Z,46.42
2023-04-15T00:44:04.684Z,46.42
2023-04-15T00:45:04.702Z,46.44
2023-04-15T00:46:04.776Z,46.36
2023-04-15T00:47:04.788Z,46.36
2023-04-15T00:48:04.886Z,46.36
2023-04-15T00:49:04.891Z,46.34
2023-04-15T00:50:05.011Z,46.35
2023-04-15T00:51:05.027Z,46.36
2023-04-15T00:52:05.047Z,46.37
2023-04-15T00:53:05.112Z,46.31
2023-04-15T00:54:05.157Z,46.35
2023-04-15T00:55:05.189Z,46.39
2023-04-15T00:56:05.230Z,46.28
2023-04-15T00:57:05.261Z,46.32
2023-04-15T00:58:05.320Z,46.29
2023-04-15T00:59:05.358Z,46.30
2023-04-15T01:00:05.405Z,46.26
2023-04-15T01:01:05.455Z,46.28
2023-04-15T01:02:05.614Z,46.25
2023-04-15T01:03:05.646Z,46.26
2023-04-15T01:04:05.633Z,46.28
2023-04-15T01:05:05.664Z,46.39
2023-04-15T01:06:05.669Z,46.39
2023-04-15T01:07:05.707Z,46.23
2023-04-15T01:08:05.747Z,46.22
2023-04-15T01:09:05.802Z,46.23
2023-04-15T01:10:05.852Z,46.28
2023-04-15T01:11:05.880Z,46.29
2023-04-15T01:12:06.514Z,46.27
2023-04-15T01:13:05.946Z,46.28
2023-04-15T01:14:05.999Z,46.27
2023-04-15T01:15:06.058Z,46.24
2023-04-15T01:16:06.137Z,46.25
2023-04-15T01:17:06.140Z,46.24
2023-04-15T01:18:06.164Z,46.21
2023-04-15T01:19:06.220Z,46.21
2023-04-15T01:20:07.032Z,46.19
2023-04-15T01:21:06.296Z,46.27
2023-04-15T01:22:06.350Z,46.30
2023-04-15T01:23:06.425Z,46.20
2023-04-15T01:24:06.459Z,46.21
2023-04-15T01:25:06.518Z,46.17
2023-04-15T01:26:06.544Z,46.20
2023-04-15T01:27:06.605Z,46.24
2023-04-15T01:28:06.654Z,46.21
2023-04-15T01:29:06.707Z,46.20
2023-04-15T01:30:06.753Z,46.22
2023-04-15T01:31:06.831Z,46.20
2023-04-15T01:32:06.845Z,46.10
2023-04-15T01:33:06.888Z,46.15
2023-04-15T01:34:06.940Z,46.14
2023-04-15T01:35:06.981Z,46.08
2023-04-15T01:36:07.044Z,46.17
2023-04-15T01:37:07.079Z,46.23
2023-04-15T01:38:07.118Z,46.15
2023-04-15T01:39:07.169Z,46.17
2023-04-15T01:40:07.195Z,46.18
2023-04-15T01:41:07.221Z,46.17
2023-04-15T01:42:07.256Z,46.12
2023-04-15T01:43:07.306Z,46.12
2023-04-15T01:44:07.348Z,46.16
2023-04-15T01:45:07.543Z,46.11
2023-04-15T01:46:07.427Z,46.12
2023-04-15T01:47:07.446Z,46.14
2023-04-15T01:48:07.508Z,46.17
2023-04-15T01:49:07.545Z,46.15
2023-04-15T01:50:07.579Z,46.13
2023-04-15T01:51:07.626Z,46.14
2023-04-15T01:52:07.656Z,46.07
2023-04-15T01:53:07.695Z,46.14
2023-04-15T01:54:07.863Z,46.09
2023-04-15T01:55:07.781Z,46.10
2023-04-15T01:56:07.840Z,46.05
2023-04-15T01:57:07.884Z,46.06
2023-04-15T01:58:07.927Z,46.07
2023-04-15T01:59:07.987Z,46.01
2023-04-15T02:00:08.030Z,46.01
2023-04-15T02:01:08.123Z,46.06
2023-04-15T02:02:08.208Z,46.02
2023-04-15T02:03:08.179Z,45.99
2023-04-15T02:04:08.333Z,45.99
2023-04-15T02:05:08.197Z,45.96
2023-04-15T02:06:08.231Z,45.97
2023-04-15T02:07:08.258Z,45.98
2023-04-15T02:08:08.316Z,45.97
2023-04-15T02:09:08.369Z,45.94
2023-04-15T02:10:08.395Z,45.95
2023-04-15T02:11:08.465Z,45.93
2023-04-15T02:12:08.546Z,45.94
2023-04-15T02:13:08.549Z,45.93
2023-04-15T02:14:08.603Z,45.98
2023-04-15T02:15:08.656Z,45.96
2023-04-15T02:16:08.750Z,45.88
2023-04-15T02:17:08.748Z,45.98
2023-04-15T02:18:08.790Z,45.91
2023-04-15T02:19:08.838Z,45.89
2023-04-15T02:20:08.869Z,45.90
2023-04-15T02:21:08.927Z,45.93
2023-04-15T02:22:08.961Z,45.94
2023-04-15T02:23:08.994Z,45.88
2023-04-15T02:24:09.035Z,45.94
2023-04-15T02:25:09.070Z,45.98
2023-04-15T02:26:09.120Z,45.95
2023-04-15T02:27:09.148Z,45.99
2023-04-15T02:28:09.193Z,45.93
2023-04-15T02:29:09.217Z,45.95
2023-04-15T02:30:09.286Z,45.94
2023-04-15T02:31:09.288Z,45.92
2023-04-15T02:32:09.398Z,45.95
2023-04-15T02:33:09.384Z,45.88
2023-04-15T02:34:09.439Z,45.84
2023-04-15T02:35:09.444Z,45.83
2023-04-15T02:36:09.500Z,45.89
2023-04-15T02:37:09.540Z,45.90
2023-04-15T02:38:09.577Z,45.92
2023-04-15T02:39:09.623Z,45.93
2023-04-15T02:40:09.680Z,45.89
2023-04-15T02:41:09.683Z,45.93
2023-04-15T02:42:09.737Z,45.94
2023-04-15T02:43:09.769Z,45.97
2023-04-15T02:44:11.351Z,45.88
2023-04-15T02:45:09.864Z,45.92
2023-04-15T02:46:09.881Z,45.92
2023-04-15T02:47:09.891Z,45.86
2023-04-15T02:48:09.963Z,45.94
2023-04-15T02:49:09.993Z,45.89
2023-04-15T02:50:10.028Z,45.90
2023-04-15T02:51:10.055Z,45.90
2023-04-15T02:52:10.081Z,45.88
2023-04-15T02:53:10.132Z,45.84
2023-04-15T02:54:10.185Z,45.89
2023-04-15T02:55:10.239Z,45.90
2023-04-15T02:56:10.252Z,45.91
2023-04-15T02:57:10.293Z,45.91
2023-04-15T02:58:10.330Z,46.00
2023-04-15T02:59:10.381Z,45.90
2023-04-15T03:00:10.416Z,45.88
2023-04-15T03:01:10.515Z,45.89
2023-04-15T03:02:10.544Z,45.92
2023-04-15T03:03:10.707Z,45.82
2023-04-15T03:04:10.677Z,45.77
2023-04-15T03:05:10.647Z,45.87
2023-04-15T03:06:10.683Z,45.84
2023-04-15T03:07:10.723Z,45.85
2023-04-15T03:08:10.767Z,45.82
2023-04-15T03:09:10.795Z,45.80
2023-04-15T03:10:10.814Z,45.83
2023-04-15T03:11:10.850Z,45.70
2023-04-15T03:12:10.879Z,45.80
2023-04-15T03:13:10.924Z,45.77
2023-04-15T03:14:10.946Z,45.68
2023-04-15T03:15:10.985Z,45.78
2023-04-15T03:16:11.045Z,45.69
2023-04-15T03:17:11.041Z,45.72
2023-04-15T03:18:11.087Z,45.78
2023-04-15T03:19:11.130Z,45.72
2023-04-15T03:20:11.226Z,45.77
2023-04-15T03:21:11.216Z,45.79
2023-04-15T03:22:11.262Z,45.76
2023-04-15T03:23:11.293Z,45.72
2023-04-15T03:24:11.316Z,45.82
2023-04-15T03:25:11.364Z,45.76
2023-04-15T03:26:11.387Z,45.77
2023-04-15T03:27:11.405Z,45.69
2023-04-15T03:28:11.465Z,45.68
2023-04-15T03:29:11.507Z,45.77
2023-04-15T03:30:11.529Z,45.74
2023-04-15T03:31:11.562Z,45.74
2023-04-15T03:32:11.588Z,45.76
2023-04-15T03:33:11.594Z,45.74
2023-04-15T03:34:11.646Z,45.76
2023-04-15T03:35:11.679Z,45.84
2023-04-15T03:36:12.579Z,45.75
2023-04-15T03:37:11.749Z,45.77
2023-04-15T03:38:11.806Z,45.76
2023-04-15T03:39:11.819Z,45.65
2023-04-15T03:40:11.849Z,45.74
2023-04-15T03:41:11.886Z,45.74
2023-04-15T03:42:11.910Z,45.76
2023-04-15T03:43:12.088Z,45.75
2023-04-15T03:44:12.004Z,45.73
2023-04-15T03:45:12.040Z,45.76
2023-04-15T03:46:12.080Z,45.82
2023-04-15T03:47:12.076Z,45.80
2023-04-15T03:48:17.836Z,45.71
2023-04-15T03:49:13.070Z,45.73
2023-04-15T03:50:12.051Z,45.76
2023-04-15T03:51:12.041Z,45.69
2023-04-15T03:52:12.031Z,45.74
2023-04-15T03:53:12.140Z,45.72
2023-04-15T03:54:11.986Z,45.70
2023-04-15T03:55:11.997Z,45.67
2023-04-15T03:56:11.970Z,45.71
2023-04-15T03:57:11.960Z,45.61
2023-04-15T03:58:11.953Z,45.67
2023-04-15T03:59:11.967Z,45.62
2023-04-15T04:00:11.996Z,45.61
2023-04-15T04:01:12.032Z,45.67
2023-04-15T04:02:12.128Z,45.69
2023-04-15T04:03:12.281Z,45.68
2023-04-15T04:04:12.173Z,45.68
2023-04-15T04:05:12.158Z,45.65
2023-04-15T04:06:12.178Z,45.63
2023-04-15T04:07:12.189Z,45.62
2023-04-15T04:08:12.191Z,45.56
2023-04-15T04:09:12.225Z,45.62
2023-04-15T04:10:12.236Z,45.60
2023-04-15T04:11:12.253Z,45.66
2023-04-15T04:12:12.286Z,45.66
2023-04-15T04:13:12.291Z,45.65
2023-04-15T04:14:12.327Z,45.68
2023-04-15T04:15:12.352Z,45.59
2023-04-15T04:16:12.539Z,45.69
2023-04-15T04:17:12.442Z,45.63
2023-04-15T04:18:12.452Z,45.62
2023-04-15T04:19:12.453Z,45.63
2023-04-15T04:20:12.455Z,45.61
2023-04-15T04:21:12.443Z,45.60
2023-04-15T04:22:12.481Z,45.56
2023-04-15T04:23:12.428Z,45.56
2023-04-15T04:24:12.436Z,45.59
2023-04-15T04:25:12.428Z,45.62
2023-04-15T04:26:12.460Z,45.61
2023-04-15T04:27:13.090Z,45.50
2023-04-15T04:28:12.495Z,45.48
2023-04-15T04:29:12.508Z,45.55
2023-04-15T04:30:12.551Z,45.51
2023-04-15T04:31:12.583Z,45.54
2023-04-15T04:32:12.634Z,45.50
2023-04-15T04:33:13.097Z,45.49
2023-04-15T04:34:12.582Z,45.56
2023-04-15T04:35:12.619Z,45.54
2023-04-15T04:36:12.661Z,45.53
2023-04-15T04:37:12.662Z,45.51
2023-04-15T04:38:12.669Z,45.49
2023-04-15T04:39:12.660Z,45.52
2023-04-15T04:40:12.677Z,45.50
2023-04-15T04:41:12.683Z,45.57
2023-04-15T04:42:12.696Z,45.54
2023-04-15T04:43:12.671Z,45.57
2023-04-15T04:44:12.684Z,45.51
2023-04-15T04:45:12.677Z,45.52
2023-04-15T04:46:12.723Z,45.56
2023-04-15T04:47:12.718Z,45.51
2023-04-15T04:48:12.699Z,45.51
2023-04-15T04:49:12.684Z,45.47
2023-04-15T04:50:12.675Z,45.47
2023-04-15T04:51:13.602Z,45.50
2023-04-15T04:52:12.677Z,45.54
2023-04-15T04:53:12.677Z,45.58
2023-04-15T04:54:12.658Z,45.57
2023-04-15T04:55:12.650Z,45.57
2023-04-15T04:56:12.635Z,45.55
2023-04-15T04:57:12.614Z,45.57
2023-04-15T04:58:12.628Z,45.56
2023-04-15T04:59:12.636Z,45.56
2023-04-15T05:00:12.630Z,45.49
2023-04-15T05:01:12.650Z,45.46
2023-04-15T05:02:12.710Z,45.54
2023-04-15T05:03:12.740Z,45.53
2023-04-15T05:04:12.712Z,45.44
2023-04-15T05:05:12.586Z,45.50
2023-04-15T05:06:12.584Z,45.42
2023-04-15T05:07:12.588Z,45.49
2023-04-15T05:08:12.562Z,45.47
2023-04-15T05:09:12.577Z,45.49
2023-04-15T05:10:12.568Z,45.53
2023-04-15T05:11:12.612Z,45.51
2023-04-15T05:12:12.543Z,45.52
2023-04-15T05:13:12.556Z,45.52
2023-04-15T05:14:12.542Z,45.49
2023-04-15T05:15:12.550Z,45.46
2023-04-15T05:16:12.604Z,45.47
2023-04-15T05:17:12.527Z,45.50
2023-04-15T05:18:12.539Z,45.53
2023-04-15T05:19:12.535Z,45.57
2023-04-15T05:20:12.517Z,45.56
2023-04-15T05:21:12.508Z,45.51
2023-04-15T05:22:12.513Z,45.55
2023-04-15T05:23:12.494Z,45.51
2023-04-15T05:24:12.490Z,45.56
2023-04-15T05:25:12.484Z,45.58
2023-04-15T05:26:12.472Z,45.55
2023-04-15T05:27:12.482Z,45.53
2023-04-15T05:28:12.462Z,45.60
2023-04-15T05:29:12.468Z,45.61
2023-04-15T05:30:13.759Z,45.63
2023-04-15T05:31:12.467Z,45.56
2023-04-15T05:32:12.418Z,45.61
2023-04-15T05:33:12.403Z,45.58
2023-04-15T05:34:12.385Z,45.57
2023-04-15T05:35:12.388Z,45.58
2023-04-15T05:36:12.384Z,45.51
2023-04-15T05:37:12.384Z,45.59
2023-04-15T05:38:12.387Z,45.55
2023-04-15T05:39:12.374Z,45.55
2023-04-15T05:40:12.401Z,45.58
2023-04-15T05:41:12.428Z,45.53
2023-04-15T05:42:12.420Z,45.54
2023-04-15T05:43:12.418Z,45.56
2023-04-15T05:44:12.408Z,45.58
2023-04-15T05:45:12.418Z,45.56
2023-04-15T05:46:12.507Z,45.48
2023-04-15T05:47:12.419Z,45.50
2023-04-15T05:48:12.415Z,45.50
2023-04-15T05:49:12.406Z,45.52
2023-04-15T05:50:12.425Z,45.52
2023-04-15T05:51:12.421Z,45.52
2023-04-15T05:52:12.411Z,45.50
2023-04-15T05:53:12.417Z,45.50
2023-04-15T05:54:12.416Z,45.46
2023-04-15T05:55:12.411Z,45.48
2023-04-15T05:56:12.437Z,45.44
2023-04-15T05:57:12.422Z,45.51
2023-04-15T05:58:12.430Z,45.46
2023-04-15T05:59:12.426Z,45.45
2023-04-15T06:00:12.427Z,45.42
2023-04-15T06:01:12.452Z,45.48
2023-04-15T06:02:12.513Z,45.42
2023-04-15T06:03:12.586Z,45.46
2023-04-15T06:04:12.656Z,45.44
2023-04-15T06:05:13.117Z,45.49
2023-04-15T06:06:12.511Z,45.44
2023-04-15T06:07:12.508Z,45.51
2023-04-15T06:08:12.527Z,45.47
2023-04-15T06:09:12.501Z,45.50
2023-04-15T06:10:12.539Z,45.48
2023-04-15T06:11:12.577Z,45.49
2023-04-15T06:12:12.626Z,45.53
2023-04-15T06:13:12.645Z,45.52
2023-04-15T06:14:12.639Z,45.54
2023-04-15T06:15:12.650Z,45.50
2023-04-15T06:16:12.685Z,45.51
2023-04-15T06:17:12.638Z,45.48
2023-04-15T06:18:12.643Z,45.48
2023-04-15T06:19:12.667Z,45.45
2023-04-15T06:20:12.630Z,45.47
2023-04-15T06:21:12.643Z,45.46
2023-04-15T06:22:14.631Z,45.48
2023-04-15T06:23:12.693Z,45.50
2023-04-15T06:24:12.743Z,45.54
2023-04-15T06:25:12.743Z,45.45
2023-04-15T06:26:12.769Z,45.49
2023-04-15T06:27:12.773Z,45.50
2023-04-15T06:28:12.772Z,45.53
2023-04-15T06:29:12.766Z,45.53
2023-04-15T06:30:12.780Z,45.47
2023-04-15T06:31:12.806Z,45.50
2023-04-15T06:32:13.133Z,45.53
2023-04-15T06:33:12.796Z,45.55
2023-04-15T06:34:12.810Z,45.54
2023-04-15T06:35:12.832Z,45.54
2023-04-15T06:36:12.859Z,45.54
2023-04-15T06:37:12.854Z,45.50
2023-04-15T06:38:12.862Z,45.54
2023-04-15T06:39:12.863Z,45.58
2023-04-15T06:40:12.875Z,45.55
2023-04-15T06:41:12.871Z,45.59
2023-04-15T06:42:12.884Z,45.59
2023-04-15T06:43:12.900Z,45.59
2023-04-15T06:44:12.923Z,45.65
2023-04-15T06:45:12.967Z,45.65
2023-04-15T06:46:13.023Z,45.66
2023-04-15T06:47:13.003Z,45.70
2023-04-15T06:48:13.029Z,45.66
2023-04-15T06:49:13.056Z,45.67
2023-04-15T06:50:13.640Z,45.59
2023-04-15T06:51:13.050Z,45.66
2023-04-15T06:52:13.060Z,45.65
2023-04-15T06:53:13.076Z,45.59
2023-04-15T06:54:13.110Z,45.63
2023-04-15T06:55:13.147Z,45.66
2023-04-15T06:56:13.197Z,45.56
2023-04-15T06:57:13.213Z,45.58
2023-04-15T06:58:13.281Z,45.60
2023-04-15T06:59:13.307Z,45.66
2023-04-15T07:00:13.337Z,45.61
2023-04-15T07:01:13.402Z,45.58
2023-04-15T07:02:13.451Z,45.64
2023-04-15T07:03:13.524Z,45.64
2023-04-15T07:04:13.493Z,45.64
2023-04-15T07:05:13.490Z,45.63
2023-04-15T07:06:13.455Z,45.68
2023-04-15T07:07:13.482Z,45.62
2023-04-15T07:08:13.503Z,45.68
2023-04-15T07:09:13.530Z,45.61
2023-04-15T07:10:13.540Z,45.67
2023-04-15T07:11:13.570Z,45.70
2023-04-15T07:12:13.601Z,45.67
2023-04-15T07:13:13.613Z,45.71
2023-04-15T07:14:13.613Z,45.70
2023-04-15T07:15:13.657Z,45.65
2023-04-15T07:16:13.738Z,45.63
2023-04-15T07:17:13.753Z,45.66
2023-04-15T07:18:13.708Z,45.66
2023-04-15T07:19:13.741Z,45.69
2023-04-15T07:20:15.656Z,45.54
2023-04-15T07:21:13.823Z,45.50
2023-04-15T07:22:13.818Z,45.60
2023-04-15T07:23:13.829Z,45.59
2023-04-15T07:24:13.801Z,45.63
2023-04-15T07:25:13.803Z,45.60
2023-04-15T07:26:13.788Z,45.57
2023-04-15T07:27:13.786Z,45.51
2023-04-15T07:28:13.792Z,45.60
2023-04-15T07:29:13.770Z,45.64
2023-04-15T07:30:13.788Z,45.60
2023-04-15T07:31:13.828Z,45.56
2023-04-15T07:32:13.771Z,45.57
2023-04-15T07:33:13.766Z,45.52
2023-04-15T07:34:13.785Z,45.54
2023-04-15T07:35:13.765Z,45.61
2023-04-15T07:36:13.804Z,45.61
2023-04-15T07:37:13.832Z,45.65
2023-04-15T07:38:13.877Z,45.65
2023-04-15T07:39:13.906Z,45.69
2023-04-15T07:40:13.912Z,45.62
2023-04-15T07:41:13.919Z,45.61
2023-04-15T07:42:13.918Z,45.58
2023-04-15T07:43:13.907Z,45.61
2023-04-15T07:44:13.910Z,45.67
2023-04-15T07:45:13.936Z,45.66
2023-04-15T07:46:13.949Z,45.61
2023-04-15T07:47:13.902Z,45.69
2023-04-15T07:48:13.904Z,45.75
2023-04-15T07:49:13.894Z,45.66
2023-04-15T07:50:13.893Z,45.68
2023-04-15T07:51:13.917Z,45.65
2023-04-15T07:52:13.947Z,45.70
2023-04-15T07:53:13.968Z,45.65
2023-04-15T07:54:13.973Z,45.67
2023-04-15T07:55:13.998Z,45.62
2023-04-15T07:56:14.016Z,45.67
2023-04-15T07:57:14.006Z,45.69
2023-04-15T07:58:14.001Z,45.75
2023-04-15T07:59:14.032Z,45.67
2023-04-15T08:00:14.051Z,45.67
2023-04-15T08:01:14.702Z,45.69
2023-04-15T08:02:14.182Z,45.70
2023-04-15T08:03:14.232Z,45.71
2023-04-15T08:04:14.278Z,45.71
2023-04-15T08:05:14.275Z,45.71
2023-04-15T08:06:14.192Z,45.71
2023-04-15T08:07:14.190Z,45.71
2023-04-15T08:08:14.213Z,45.62
2023-04-15T08:09:14.212Z,45.60
2023-04-15T08:10:14.224Z,45.60
2023-04-15T08:11:14.234Z,45.71
2023-04-15T08:12:14.258Z,45.66
2023-04-15T08:13:14.291Z,45.61
2023-04-15T08:14:14.306Z,45.76
2023-04-15T08:15:14.331Z,45.83
2023-04-15T08:16:14.439Z,45.71
2023-04-15T08:17:14.338Z,45.70
2023-04-15T08:18:14.339Z,45.76
2023-04-15T08:19:14.369Z,45.70
2023-04-15T08:20:14.365Z,45.77
2023-04-15T08:21:14.389Z,45.72
2023-04-15T08:22:18.036Z,45.67
2023-04-15T08:23:14.377Z,45.77
2023-04-15T08:24:14.362Z,45.73
2023-04-15T08:25:14.366Z,45.70
2023-04-15T08:26:14.382Z,45.73
2023-04-15T08:27:14.361Z,45.66
2023-04-15T08:28:14.369Z,45.66
2023-04-15T08:29:14.355Z,45.63
2023-04-15T08:30:15.169Z,45.65
2023-04-15T08:31:15.453Z,45.72
2023-04-15T08:32:14.357Z,45.75
2023-04-15T08:33:14.338Z,45.72
2023-04-15T08:34:14.350Z,45.71
2023-04-15T08:35:14.316Z,45.76
2023-04-15T08:36:14.310Z,45.74
2023-04-15T08:37:14.309Z,45.76
2023-04-15T08:38:14.303Z,45.67
2023-04-15T08:39:14.290Z,45.71
2023-04-15T08:40:14.330Z,45.67
2023-04-15T08:41:14.290Z,45.58
2023-04-15T08:42:15.174Z,45.67
2023-04-15T08:43:14.278Z,45.65
2023-04-15T08:44:14.278Z,45.60
2023-04-15T08:45:14.279Z,45.66
2023-04-15T08:46:14.265Z,45.62
2023-04-15T08:47:14.269Z,45.62
2023-04-15T08:48:14.261Z,45.60
2023-04-15T08:49:14.249Z,45.55
2023-04-15T08:50:14.246Z,45.55
2023-04-15T08:51:14.288Z,45.48
2023-04-15T08:52:14.225Z,45.41
2023-04-15T08:53:14.228Z,45.48
2023-04-15T08:54:14.202Z,45.45
2023-04-15T08:55:14.227Z,45.46
2023-04-15T08:56:14.183Z,45.37
2023-04-15T08:57:14.177Z,45.38
2023-04-15T08:58:14.173Z,45.34
2023-04-15T08:59:14.163Z,45.33
2023-04-15T09:00:14.153Z,45.35
2023-04-15T09:01:14.175Z,45.34
2023-04-15T09:02:14.177Z,45.24
2023-04-15T09:03:14.195Z,45.23
2023-04-15T09:04:14.237Z,45.28
2023-04-15T09:05:14.194Z,45.28
2023-04-15T09:06:14.246Z,45.29
2023-04-15T09:07:14.264Z,45.36
2023-04-15T09:08:14.331Z,45.31
2023-04-15T09:09:14.393Z,45.30
2023-04-15T09:10:14.361Z,45.28
2023-04-15T09:11:14.375Z,45.36
2023-04-15T09:12:14.414Z,45.35
2023-04-15T09:13:15.179Z,45.33
2023-04-15T09:14:14.472Z,45.38
2023-04-15T09:15:14.499Z,45.37
2023-04-15T09:16:14.555Z,45.34
2023-04-15T09:17:14.582Z,45.28
2023-04-15T09:18:14.662Z,45.29
2023-04-15T09:19:14.666Z,45.35
2023-04-15T09:20:14.716Z,45.33
2023-04-15T09:21:14.744Z,45.29
2023-04-15T09:22:14.790Z,45.29
2023-04-15T09:23:14.837Z,45.33
2023-04-15T09:24:14.876Z,45.36
2023-04-15T09:25:14.913Z,45.39
2023-04-15T09:26:14.973Z,45.43
2023-04-15T09:27:15.012Z,45.45
2023-04-15T09:28:15.073Z,45.52
2023-04-15T09:29:15.097Z,45.47
2023-04-15T09:30:15.110Z,45.42
2023-04-15T09:31:15.149Z,45.32
2023-04-15T09:32:15.138Z,45.32
2023-04-15T09:33:15.161Z,45.42
2023-04-15T09:34:15.186Z,45.39
2023-04-15T09:35:15.203Z,45.48
2023-04-15T09:36:15.241Z,45.43
2023-04-15T09:37:31.304Z,45.43
2023-04-15T09:38:16.245Z,45.48
2023-04-15T09:39:15.212Z,45.52
2023-04-15T09:40:15.214Z,45.48
2023-04-15T09:41:15.203Z,45.44
2023-04-15T09:42:15.189Z,45.46
2023-04-15T09:43:15.190Z,45.54
2023-04-15T09:44:15.178Z,45.45
2023-04-15T09:45:15.171Z,45.44
2023-04-15T09:46:15.201Z,45.54
2023-04-15T09:47:15.176Z,45.45
2023-04-15T09:48:15.156Z,45.44
2023-04-15T09:49:15.167Z,45.48
2023-04-15T09:50:15.177Z,45.39
2023-04-15T09:51:15.195Z,45.40
2023-04-15T09:52:15.199Z,45.54
2023-04-15T09:53:15.216Z,45.53
2023-04-15T09:54:15.235Z,45.46
2023-04-15T09:55:15.230Z,45.35
2023-04-15T09:56:15.246Z,45.41
2023-04-15T09:57:15.240Z,45.32
2023-04-15T09:58:16.187Z,45.30
2023-04-15T09:59:15.278Z,45.29
2023-04-15T10:00:15.321Z,45.30
2023-04-15T10:01:15.333Z,45.26
2023-04-15T10:02:15.372Z,45.35
2023-04-15T10:03:15.451Z,45.32
2023-04-15T10:04:15.502Z,45.35
2023-04-15T10:05:15.371Z,45.32
2023-04-15T10:06:15.378Z,45.29
2023-04-15T10:07:15.387Z,45.28
2023-04-15T10:08:15.397Z,45.33
2023-04-15T10:09:15.432Z,45.23
2023-04-15T10:10:15.469Z,45.27
2023-04-15T10:11:15.460Z,45.21
2023-04-15T10:12:15.460Z,45.23
2023-04-15T10:13:15.461Z,45.21
2023-04-15T10:14:15.457Z,45.26
2023-04-15T10:15:15.460Z,45.18
2023-04-15T10:16:15.526Z,45.29
2023-04-15T10:17:15.491Z,45.27
2023-04-15T10:18:15.514Z,45.16
2023-04-15T10:19:15.509Z,45.26
2023-04-15T10:20:15.566Z,45.25
2023-04-15T10:21:15.500Z,45.24
2023-04-15T10:22:15.538Z,45.20
2023-04-15T10:23:15.544Z,45.18
2023-04-15T10:24:15.548Z,45.23
2023-04-15T10:25:15.570Z,45.18
2023-04-15T10:26:15.552Z,45.23
2023-04-15T10:27:15.575Z,45.27
2023-04-15T10:28:15.613Z,45.28
2023-04-15T10:29:15.641Z,45.26
2023-04-15T10:30:15.687Z,45.32
2023-04-15T10:31:15.746Z,45.26
2023-04-15T10:32:15.755Z,45.28
2023-04-15T10:33:15.756Z,45.32
2023-04-15T10:34:15.766Z,45.31
2023-04-15T10:35:15.763Z,45.31
2023-04-15T10:36:15.768Z,45.29
2023-04-15T10:37:15.782Z,45.32
2023-04-15T10:38:15.804Z,45.25
2023-04-15T10:39:15.812Z,45.28
2023-04-15T10:40:15.825Z,45.29
2023-04-15T10:41:19.931Z,45.29
2023-04-15T10:42:15.839Z,45.39
2023-04-15T10:43:15.831Z,45.33
2023-04-15T10:44:15.841Z,45.33
2023-04-15T10:45:15.821Z,45.23
2023-04-15T10:46:15.880Z,45.26
2023-04-15T10:47:15.807Z,45.31
2023-04-15T10:48:15.811Z,45.29
2023-04-15T10:49:15.807Z,45.21
2023-04-15T10:50:15.802Z,45.27
2023-04-15T10:51:16.801Z,45.23
2023-04-15T10:52:15.785Z,45.23
2023-04-15T10:53:15.782Z,45.21
2023-04-15T10:54:15.792Z,45.25
2023-04-15T10:55:15.803Z,45.20
2023-04-15T10:56:15.772Z,45.08
2023-04-15T10:57:15.773Z,45.11
2023-04-15T10:58:15.772Z,45.16
2023-04-15T10:59:15.743Z,45.16
2023-04-15T11:00:15.723Z,45.19
2023-04-15T11:01:15.735Z,45.17
2023-04-15T11:02:15.943Z,45.13
2023-04-15T11:03:15.852Z,45.16
2023-04-15T11:04:15.830Z,45.19
2023-04-15T11:05:15.756Z,45.18
2023-04-15T11:06:15.789Z,45.23
2023-04-15T11:07:15.818Z,45.12
2023-04-15T11:08:15.882Z,45.05
2023-04-15T11:09:15.931Z,44.98
2023-04-15T11:10:15.978Z,45.01
2023-04-15T11:11:16.046Z,45.01
2023-04-15T11:12:16.093Z,45.05
2023-04-15T11:13:16.143Z,45.00
2023-04-15T11:14:16.256Z,44.94
2023-04-15T11:15:16.235Z,44.92
2023-04-15T11:16:16.337Z,44.73
2023-04-15T11:17:16.327Z,44.69
2023-04-15T11:18:16.385Z,44.77
2023-04-15T11:19:16.444Z,44.76
2023-04-15T11:20:16.505Z,44.89
2023-04-15T11:21:16.548Z,44.75
2023-04-15T11:22:16.594Z,44.81
2023-04-15T11:23:17.216Z,44.86
2023-04-15T11:24:16.708Z,44.83
2023-04-15T11:25:16.753Z,44.83
2023-04-15T11:26:16.777Z,44.94
2023-04-15T11:27:16.811Z,44.96
2023-04-15T11:28:16.823Z,45.00
2023-04-15T11:29:16.837Z,44.93
2023-04-15T11:30:16.858Z,44.85
2023-04-15T11:31:16.977Z,44.87
2023-04-15T11:32:17.002Z,44.92
2023-04-15T11:33:16.949Z,44.96
2023-04-15T11:34:16.967Z,45.02
2023-04-15T11:35:17.015Z,44.94
2023-04-15T11:36:17.005Z,44.97
2023-04-15T11:37:16.994Z,44.96
2023-04-15T11:38:17.006Z,44.96
2023-04-15T11:39:17.012Z,45.02
2023-04-15T11:40:17.033Z,45.08
2023-04-15T11:41:17.022Z,45.07
2023-04-15T11:42:17.050Z,45.09
2023-04-15T11:43:17.042Z,45.07
2023-04-15T11:44:17.027Z,45.12
2023-04-15T11:45:17.032Z,45.18
2023-04-15T11:46:17.139Z,45.17
2023-04-15T11:47:17.015Z,45.11
2023-04-15T11:48:17.013Z,45.18
2023-04-15T11:49:16.997Z,45.15
2023-04-15T11:50:16.983Z,45.18
2023-04-15T11:51:17.004Z,45.21
2023-04-15T11:52:16.977Z,45.21
2023-04-15T11:53:16.972Z,45.22
2023-04-15T11:54:16.959Z,45.04
2023-04-15T11:55:16.950Z,45.11
2023-04-15T11:56:16.943Z,45.09
2023-04-15T11:57:16.933Z,45.19
2023-04-15T11:58:18.720Z,45.14
2023-04-15T11:59:16.910Z,45.11
2023-04-15T12:00:16.913Z,44.91
2023-04-15T12:01:16.923Z,44.95
2023-04-15T12:02:17.031Z,44.88
2023-04-15T12:03:17.296Z,44.82
2023-04-15T12:04:17.109Z,44.87
2023-04-15T12:05:17.143Z,44.89
2023-04-15T12:06:17.256Z,44.83
2023-04-15T12:07:17.057Z,44.95
2023-04-15T12:08:17.057Z,44.96
2023-04-15T12:09:17.072Z,44.96
2023-04-15T12:10:17.099Z,45.03
2023-04-15T12:11:17.108Z,44.96
2023-04-15T12:12:17.113Z,44.91
2023-04-15T12:13:17.118Z,44.86
2023-04-15T12:14:17.139Z,44.74
2023-04-15T12:15:17.153Z,44.73
2023-04-15T12:16:17.294Z,44.78
2023-04-15T12:17:17.151Z,44.84
2023-04-15T12:18:17.213Z,44.78
2023-04-15T12:19:17.141Z,44.87
2023-04-15T12:20:17.135Z,44.89
2023-04-15T12:21:17.129Z,44.75
2023-04-15T12:22:17.133Z,44.83
2023-04-15T12:23:17.136Z,44.80
2023-04-15T12:24:17.119Z,44.75
2023-04-15T12:25:17.130Z,44.79
2023-04-15T12:26:17.128Z,44.81
2023-04-15T12:27:17.168Z,44.78
2023-04-15T12:28:17.181Z,44.77
2023-04-15T12:29:17.187Z,44.84
2023-04-15T12:30:17.224Z,44.85
2023-04-15T12:31:17.273Z,44.81
2023-04-15T12:32:17.345Z,44.78
2023-04-15T12:33:17.273Z,44.84
2023-04-15T12:34:17.295Z,44.83
2023-04-15T12:35:17.306Z,44.80
2023-04-15T12:36:17.322Z,44.87
2023-04-15T12:37:17.305Z,44.75
2023-04-15T12:38:17.304Z,44.77
2023-04-15T12:39:17.294Z,44.75
2023-04-15T12:40:17.303Z,44.76
2023-04-15T12:41:17.302Z,44.72
2023-04-15T12:42:17.305Z,44.78
2023-04-15T12:43:17.299Z,44.89
2023-04-15T12:44:17.310Z,44.91
2023-04-15T12:45:17.333Z,44.89
2023-04-15T12:46:17.340Z,44.80
2023-04-15T12:47:17.376Z,44.76
2023-04-15T12:48:17.338Z,44.79
2023-04-15T12:49:17.313Z,44.70
2023-04-15T12:50:17.324Z,44.65
2023-04-15T12:51:17.314Z,44.71
2023-04-15T12:52:17.307Z,44.68